Language selection

Features

My Weather Profile Weather Topics  | 

Pacific - North Coast: Past 24 Hour Conditions

 

Cape St.James

05:00 AM PST 22 November 2019
Disclaimer

This table is a summary of hourly weather conditions for the past 24 hours.
Please note that these observations might not always be representative of weather conditions over their associated marine area.

Date / Time
(PST)
Wind(knots) Conditions Visibility(km) Pressure(kPa) Air tempC) Relative humidity(%) Dew pointC)
22 November 2019
5:00 SW 25 N/A N/A 101.4 10 99 10
4:00 SSW 25 N/A N/A 101.4 10 99 10
3:00 SSW 27 N/A N/A 101.4 10 99 10
2:00 SSW 29 N/A N/A 101.4 10 99 10
1:00 S 28 N/A N/A 101.4 10 98 9
0:00 SSW 27 N/A N/A 101.4 9 95 9
21 November 2019
23:00 SSW 25 N/A N/A 101.4 10 91 8
22:00 SW 23 N/A N/A 101.4 10 89 8
21:00 SW 19 N/A N/A 101.4 9 87 7
20:00 WSW 21 N/A N/A 101.3 9 84 7
19:00 W 28 N/A N/A 101.2 9 81 6
18:00 W 32 gust 37 N/A N/A 101.1 9 83 7
17:00 W 25 gust 31 N/A N/A 101.0 9 89 8
16:00 W 32 gust 40 N/A N/A 100.9 10 81 6
15:00 W 32 gust 38 N/A N/A 100.8 8 96 8
14:00 WSW 37 gust 43 N/A N/A 100.7 8 94 8
13:00 SW 39 gust 49 N/A N/A 100.6 9 96 8
12:00 SW 36 gust 42 N/A N/A 100.6 9 88 7
11:00 SSW 30 N/A N/A 100.6 9 95 8
10:00 S 23 gust 28 N/A N/A 100.6 9 98 9
9:00 SSE 28 N/A N/A 100.6 9 98 9
8:00 SSE 24 gust 29 N/A N/A 100.7 9 97 9
7:00 SSE 19 gust 24 N/A N/A 100.8 9 94 8
6:00 SSE 15 N/A N/A 100.9 9 93 8
5:00 SSE 14 N/A N/A 101.0 9 92 8

Zoom-in to make a selection

Map of Pacific - North Coast marine weather areas Middle Nomad - 46004 South Nomad - 46036 Dixon Entrance Central - 46145 South Moresby - 46147 Nanakwa Shoal - 46181 North Hecate Strait - 46183 North Nomad - 46184 South Hecate Strait - 46185 West Sea Otter - 46204 West Dixon Entrance - 46205 East Dellwood - 46207 West Moresby - 46208 Sartine Island Cape St.James Kindakun Rocks Langara Island Masset Municipal Airport Rose Spit Sandspit Airport Bella Bella Airport Bella Coola Airport Bonilla Island Cathedral Point Cumshewa Island Grey Islet Holland Rock Lucy Islands Lightstation Prince Rupert Airport
Legend:
buoy Buoy
land station Land Station

Pacific - North Coast Area

Another Region

What we are doing

Date modified: